Time;durP1;ratioP1;P1;durP2;ratioP2;P2;SDS_P1;SDS_P2;PMS_P1;PMS_P2;Temp;Humidity;BMP_temperature;BMP_pressure;BME280_temperature;BME280_humidity;BME280_pressure;Samples;Min_cycle;Max_cycle;Signal;HPM_P1;HPM_P2
2022/08/06 00:00:32;;;;;;;1.50;0.70;;;12.90;99.90;;;;;;5075648;28;20045;-60
2022/08/06 00:02:58;;;;;;;1.50;0.63;;;12.90;99.90;;;;;;5076054;28;20040;-60
2022/08/06 00:05:25;;;;;;;0.70;0.57;;;12.90;99.90;;;;;;5074469;28;20032;-60
2022/08/06 00:07:51;;;;;;;1.58;0.57;;;12.80;99.90;;;;;;5075659;28;20044;-61
2022/08/06 00:10:18;;;;;;;1.83;0.50;;;13.20;99.90;;;;;;5075906;28;20045;-61
2022/08/06 00:12:44;;;;;;;3.50;0.60;;;12.80;99.90;;;;;;5075508;28;20040;-61
2022/08/06 00:15:10;;;;;;;1.92;0.82;;;12.70;99.90;;;;;;5075826;28;20055;-61
2022/08/06 00:17:38;;;;;;;2.20;0.55;;;12.70;99.90;;;;;;5075497;28;20500;-60
2022/08/06 00:20:05;;;;;;;1.35;0.68;;;12.70;99.90;;;;;;5075766;28;20044;-60
2022/08/06 00:22:31;;;;;;;1.73;0.60;;;12.60;99.90;;;;;;5075383;28;20043;-61
2022/08/06 00:24:57;;;;;;;0.85;0.50;;;12.70;99.90;;;;;;5075631;28;20032;-61
2022/08/06 00:27:23;;;;;;;0.43;0.43;;;12.50;99.90;;;;;;5075819;28;20040;-60
2022/08/06 00:29:49;;;;;;;0.88;0.70;;;13.50;99.90;;;;;;5057334;28;20404;-61
2022/08/06 00:32:15;;;;;;;0.52;0.50;;;12.60;99.90;;;;;;5074400;28;20068;-60
2022/08/06 00:34:41;;;;;;;0.52;0.50;;;12.40;99.90;;;;;;5075461;28;20044;-61
2022/08/06 00:37:07;;;;;;;0.65;0.50;;;12.50;99.90;;;;;;5075375;28;20080;-60
2022/08/06 00:39:32;;;;;;;0.70;0.50;;;12.50;99.90;;;;;;5075337;28;20434;-60
2022/08/06 00:41:58;;;;;;;0.98;0.50;;;12.50;99.90;;;;;;5075390;28;20042;-61
2022/08/06 00:44:25;;;;;;;0.60;0.60;;;12.80;99.90;;;;;;5075372;28;20108;-61
2022/08/06 00:46:51;;;;;;;0.68;0.60;;;12.40;99.90;;;;;;5075237;28;20178;-61
2022/08/06 00:49:17;;;;;;;1.17;0.75;;;13.20;99.90;;;;;;5075259;28;20051;-62
2022/08/06 00:51:43;;;;;;;1.13;0.63;;;13.00;99.90;;;;;;5074921;28;20396;-60
2022/08/06 00:54:09;;;;;;;0.90;0.70;;;12.40;99.90;;;;;;5075095;28;20029;-60
2022/08/06 00:56:34;;;;;;;1.13;0.57;;;12.30;99.90;;;;;;5074816;28;20063;-60
2022/08/06 00:59:00;;;;;;;0.70;0.57;;;12.30;99.90;;;;;;5075016;28;20040;-60
2022/08/06 01:01:26;;;;;;;1.95;0.90;;;12.30;99.90;;;;;;5073665;28;20068;-60
2022/08/06 01:03:51;;;;;;;3.15;1.02;;;12.20;99.90;;;;;;5074909;28;20079;-60
2022/08/06 01:06:18;;;;;;;1.60;0.90;;;12.30;99.90;;;;;;5074908;28;20036;-61
2022/08/06 01:08:44;;;;;;;1.85;0.70;;;12.30;99.90;;;;;;5074829;28;20128;-61
2022/08/06 01:11:09;;;;;;;0.77;0.60;;;12.40;99.90;;;;;;5074571;28;20130;-61
2022/08/06 01:13:35;;;;;;;2.08;0.68;;;12.30;99.90;;;;;;5074801;28;20074;-60
2022/08/06 01:16:23;;;;;;;1.63;0.70;;;12.20;99.90;;;;;;5074377;28;20078;-60
2022/08/06 01:22:34;;;;;;;0.80;0.60;;;12.20;99.90;;;;;;5348865;22;20052;-94
2022/08/06 01:25:25;;;;;;;0.50;0.40;;;12.20;99.90;;;;;;5037809;28;20127;-93
2022/08/06 01:28:07;;;;;;;2.13;0.70;;;9.90;99.90;;;;;;5038191;28;20088;-93
2022/08/06 01:30:38;;;;;;;0.80;0.60;;;12.10;99.90;;;;;;5038327;28;20139;-94
2022/08/06 01:33:06;;;;;;;;;;;12.70;99.90;;;;;;5055569;28;20040;-94
2022/08/06 01:35:38;;;;;;;2.10;0.68;;;11.10;99.90;;;;;;5055229;28;19927;-94
2022/08/06 01:38:11;;;;;;;1.13;0.77;;;12.10;99.90;;;;;;5038658;28;20400;-94
2022/08/06 01:40:39;;;;;;;1.15;0.70;;;12.00;99.90;;;;;;5038875;28;20106;-94
2022/08/06 01:43:09;;;;;;;1.02;0.80;;;12.20;99.90;;;;;;5055079;28;20115;-92
2022/08/06 01:45:38;;;;;;;0.52;0.50;;;12.00;99.90;;;;;;5038543;28;20091;-94
2022/08/06 01:48:08;;;;;;;0.63;0.55;;;12.00;99.90;;;;;;5038618;28;20048;-93
2022/08/06 01:50:39;;;;;;;1.90;0.60;;;11.90;99.90;;;;;;5039209;28;20049;-93
2022/08/06 01:53:08;;;;;;;1.73;0.63;;;12.00;99.90;;;;;;5037809;28;20044;-93
2022/08/06 01:55:40;;;;;;;2.25;0.70;;;12.40;99.90;;;;;;5037790;28;20044;-93
2022/08/06 01:58:07;;;;;;;0.68;0.50;;;11.90;99.90;;;;;;5037841;28;20477;-93
2022/08/06 02:00:39;;;;;;;1.50;0.70;;;11.20;99.90;;;;;;5055144;28;20045;-94
2022/08/06 02:03:28;;;;;;;1.63;0.65;;;11.90;99.90;;;;;;5038511;28;20041;-93
2022/08/06 02:05:56;;;;;;;0.70;0.70;;;11.90;99.90;;;;;;5037220;28;20136;-94
2022/08/06 02:08:25;;;;;;;6.10;0.77;;;12.20;99.90;;;;;;5037824;28;20137;-93
2022/08/06 02:10:53;;;;;;;0.75;0.60;;;12.20;99.90;;;;;;5037587;28;20064;-94
2022/08/06 02:13:22;;;;;;;1.25;0.60;;;12.00;99.90;;;;;;5037687;28;20041;-93
2022/08/06 02:15:51;;;;;;;0.65;0.65;;;11.90;99.90;;;;;;5036963;28;20052;-94
2022/08/06 02:18:19;;;;;;;0.43;0.43;;;12.70;99.90;;;;;;5036734;28;20052;-92
2022/08/06 02:20:49;;;;;;;1.05;0.60;;;11.90;99.90;;;;;;5037135;28;20041;-93
2022/08/06 02:23:21;;;;;;;0.55;0.47;;;11.90;99.90;;;;;;5037060;28;20056;-95
2022/08/06 02:25:49;;;;;;;1.33;0.75;;;10.80;99.90;;;;;;5054063;28;20056;-93
2022/08/06 02:28:18;;;;;;;0.90;0.77;;;12.40;99.90;;;;;;5036938;28;20041;-93
2022/08/06 02:30:46;;;;;;;2.08;0.57;;;11.90;99.90;;;;;;5037183;28;20040;-93
2022/08/06 02:33:13;;;;;;;0.57;0.40;;;11.90;99.90;;;;;;5054014;28;20481;-93
2022/08/06 02:35:57;;;;;;;0.52;0.40;;;12.30;99.90;;;;;;5046970;28;20049;-91
2022/08/06 02:38:33;;;;;;;1.02;0.47;;;11.90;99.90;;;;;;5045428;28;20504;-93
2022/08/06 02:41:20;;;;;;;0.55;0.55;;;12.50;99.90;;;;;;5053779;28;20049;-93
2022/08/06 02:43:52;;;;;;;0.50;0.40;;;11.90;99.90;;;;;;5037390;28;20099;-93
2022/08/06 02:46:25;;;;;;;0.40;0.40;;;12.10;99.90;;;;;;5037326;28;20048;-92
2022/08/06 02:49:01;;;;;;;0.50;0.50;;;11.80;99.90;;;;;;5037169;28;20037;-93
2022/08/06 02:51:39;;;;;;;1.13;0.70;;;12.40;99.90;;;;;;5037151;28;20136;-92
2022/08/06 02:54:19;;;;;;;0.77;0.60;;;11.80;99.90;;;;;;5037504;28;20397;-93
2022/08/06 02:56:46;;;;;;;0.82;0.52;;;11.80;99.90;;;;;;5037188;28;20045;-94
2022/08/06 02:59:21;;;;;;;3.42;0.63;;;11.70;99.90;;;;;;5037367;28;20408;-94
2022/08/06 03:01:56;;;;;;;1.48;0.70;;;12.20;99.90;;;;;;5037511;28;20056;-93
2022/08/06 03:04:25;;;;;;;0.40;0.40;;;12.00;99.90;;;;;;5054175;28;20131;-93
2022/08/06 03:06:52;;;;;;;0.88;0.65;;;11.60;99.90;;;;;;5037363;28;20045;-91
2022/08/06 03:09:20;;;;;;;0.68;0.60;;;11.60;99.90;;;;;;5020489;28;20053;-94
2022/08/06 03:11:47;;;;;;;2.13;0.90;;;11.60;99.90;;;;;;5037840;28;20041;-94
2022/08/06 03:14:16;;;;;;;0.52;0.52;;;12.00;99.90;;;;;;5037296;28;20045;-93
2022/08/06 03:16:42;;;;;;;1.60;0.93;;;11.60;99.90;;;;;;5037627;28;20056;-93
2022/08/06 03:19:11;;;;;;;1.38;0.95;;;11.80;99.90;;;;;;5040557;28;20053;-92
2022/08/06 03:21:39;;;;;;;1.65;0.80;;;13.80;99.90;;;;;;5041010;28;20397;-93
2022/08/06 03:24:07;;;;;;;1.48;0.88;;;11.60;99.90;;;;;;5039551;28;20129;-93
2022/08/06 03:26:37;;;;;;;0.57;0.57;;;11.60;99.90;;;;;;5056550;28;20106;-93
2022/08/06 03:29:04;;;;;;;1.95;1.05;;;12.60;99.90;;;;;;5039830;28;20512;-92
2022/08/06 03:31:31;;;;;;;2.58;0.65;;;11.50;99.90;;;;;;5039031;28;20048;-93
2022/08/06 03:33:57;;;;;;;2.60;0.98;;;11.50;99.90;;;;;;5039909;28;20044;-92
2022/08/06 03:36:26;;;;;;;1.52;0.90;;;13.30;99.90;;;;;;5039285;28;20088;-94
2022/08/06 03:39:00;;;;;;;1.90;0.73;;;11.60;99.90;;;;;;5039680;28;20495;-92
2022/08/06 03:41:28;;;;;;;1.80;0.80;;;14.20;99.90;;;;;;5039661;28;20036;-93
2022/08/06 03:43:53;;;;;;;2.78;0.98;;;11.50;99.90;;;;;;5039511;28;20051;-93
2022/08/06 03:46:42;;;;;;;0.68;0.68;;;11.50;99.90;;;;;;5039336;28;20080;-93
2022/08/06 03:49:29;;;;;;;1.20;0.80;;;11.50;99.90;;;;;;5039844;28;20465;-93
2022/08/06 03:51:58;;;;;;;3.75;1.05;;;10.30;99.90;;;;;;5039388;28;20107;-93
2022/08/06 03:54:30;;;;;;;1.42;0.90;;;11.40;99.90;;;;;;5039215;28;20041;-93
2022/08/06 03:57:09;;;;;;;1.45;0.80;;;12.90;99.90;;;;;;5039695;28;20087;-93
2022/08/06 03:59:42;;;;;;;1.23;0.85;;;10.70;99.90;;;;;;5039620;28;20053;-93
2022/08/06 04:02:09;;;;;;;2.03;1.10;;;11.30;99.90;;;;;;5039697;28;20386;-93
2022/08/06 04:04:38;;;;;;;1.75;1.00;;;11.30;99.90;;;;;;5039183;28;20448;-94
2022/08/06 04:07:05;;;;;;;1.77;1.15;;;11.30;99.90;;;;;;5039110;28;20049;-93
2022/08/06 04:09:32;;;;;;;3.92;0.90;;;9.00;99.90;;;;;;5039031;28;20071;-93
2022/08/06 04:12:00;;;;;;;1.00;0.70;;;11.30;99.90;;;;;;5038999;28;20049;-93
2022/08/06 04:14:26;;;;;;;2.88;0.88;;;11.30;99.90;;;;;;5038487;28;20048;-91
2022/08/06 04:16:53;;;;;;;1.17;0.88;;;11.20;99.90;;;;;;5038394;28;20084;-92
2022/08/06 04:19:20;;;;;;;1.08;0.88;;;11.60;99.90;;;;;;5038598;28;20102;-92
2022/08/06 04:21:46;;;;;;;1.02;0.93;;;11.40;99.90;;;;;;5038375;28;20489;-92
2022/08/06 04:24:13;;;;;;;2.53;1.10;;;11.60;99.90;;;;;;4998911;28;1164769;-93
2022/08/06 04:26:42;;;;;;;1.67;0.80;;;10.10;99.90;;;;;;5039809;28;20060;-93
2022/08/06 04:29:12;;;;;;;4.07;0.85;;;11.80;99.90;;;;;;5055995;28;20052;-92
2022/08/06 04:31:41;;;;;;;1.08;0.88;;;11.30;99.90;;;;;;5038780;28;20087;-92
2022/08/06 04:34:09;;;;;;;1.30;0.90;;;11.30;99.90;;;;;;5038901;28;20045;-94
2022/08/06 04:36:35;;;;;;;1.30;0.80;;;11.30;99.90;;;;;;5039799;28;20110;-94
2022/08/06 04:39:01;;;;;;;0.90;0.70;;;11.50;99.90;;;;;;5040159;28;20049;-94
2022/08/06 04:41:27;;;;;;;1.10;0.65;;;11.40;99.90;;;;;;5039593;28;20045;-93
2022/08/06 04:43:53;;;;;;;0.73;0.63;;;12.90;99.90;;;;;;5039546;28;20048;-93
2022/08/06 04:46:20;;;;;;;1.05;0.80;;;11.70;99.90;;;;;;5040125;28;20049;-93
2022/08/06 04:48:47;;;;;;;0.77;0.70;;;11.50;99.90;;;;;;5039840;28;20053;-92
2022/08/06 04:51:15;;;;;;;1.60;1.05;;;12.20;99.90;;;;;;5039644;28;20217;-94
2022/08/06 04:53:43;;;;;;;1.23;1.10;;;12.00;99.90;;;;;;5040039;28;20115;-93
2022/08/06 04:56:10;;;;;;;2.40;0.93;;;12.10;99.90;;;;;;5038778;28;20098;-93
2022/08/06 04:58:36;;;;;;;0.90;0.80;;;11.90;99.90;;;;;;5039187;28;20053;-92
2022/08/06 05:01:02;;;;;;;0.98;0.70;;;12.60;99.90;;;;;;5038858;28;20542;-93
2022/08/06 05:03:34;;;;;;;1.70;0.80;;;12.20;99.90;;;;;;5038391;28;20049;-93
2022/08/06 05:06:19;;;;;;;0.60;0.60;;;13.20;99.90;;;;;;5038371;28;20083;-94
2022/08/06 05:08:57;;;;;;;0.93;0.70;;;12.00;99.90;;;;;;5038514;28;20514;-93
2022/08/06 05:11:29;;;;;;;1.10;0.77;;;11.00;99.90;;;;;;5038395;28;20045;-93
2022/08/06 05:13:59;;;;;;;0.73;0.60;;;12.10;99.90;;;;;;5038302;28;20037;-93
2022/08/06 05:16:27;;;;;;;0.50;0.50;;;12.50;99.90;;;;;;5038515;28;20048;-93
2022/08/06 05:19:03;;;;;;;2.40;0.90;;;13.30;99.90;;;;;;5045528;28;20074;-92
2022/08/06 05:21:37;;;;;;;1.20;0.73;;;12.40;99.90;;;;;;5073408;28;20057;-94
2022/08/06 05:24:14;;;;;;;1.77;0.60;;;12.40;99.90;;;;;;5038241;28;20060;-94
2022/08/06 05:26:49;;;;;;;0.70;0.60;;;12.30;99.90;;;;;;5039174;28;20128;-94
2022/08/06 05:29:22;;;;;;;0.90;0.60;;;12.40;99.90;;;;;;5038216;28;20172;-94
2022/08/06 05:31:58;;;;;;;0.73;0.50;;;12.90;99.90;;;;;;5037954;28;20053;-94
2022/08/06 05:34:36;;;;;;;0.88;0.60;;;13.10;99.90;;;;;;5037919;28;20041;-93
2022/08/06 05:37:03;;;;;;;0.40;0.40;;;14.90;99.90;;;;;;5038042;28;20064;-94
2022/08/06 05:39:28;;;;;;;1.23;0.63;;;13.70;99.90;;;;;;5037586;28;20508;-94
2022/08/06 05:41:54;;;;;;;0.50;0.40;;;12.90;99.90;;;;;;5037573;28;20198;-94
2022/08/06 05:44:20;;;;;;;0.80;0.50;;;13.50;99.90;;;;;;5038181;28;20105;-93
2022/08/06 05:46:56;;;;;;;1.17;0.60;;;13.30;99.90;;;;;;5022136;28;20052;-96
2022/08/06 05:49:28;;;;;;;1.00;0.60;;;13.50;99.90;;;;;;5037598;28;20092;-93
2022/08/06 05:52:04;;;;;;;1.38;0.55;;;13.00;99.90;;;;;;5037684;28;20037;-93
2022/08/06 05:54:48;;;;;;;0.75;0.60;;;13.20;99.90;;;;;;5037570;28;20044;-92
2022/08/06 05:57:35;;;;;;;1.55;0.68;;;13.10;99.90;;;;;;5037266;28;20064;-93
2022/08/06 06:00:18;;;;;;;1.20;0.50;;;12.90;99.90;;;;;;5037786;28;20041;-94
2022/08/06 06:02:53;;;;;;;0.50;0.50;;;13.10;99.90;;;;;;5037506;28;20408;-94
2022/08/06 06:05:21;;;;;;;1.67;0.68;;;13.20;99.90;;;;;;5037510;28;20057;-94
2022/08/06 06:07:48;;;;;;;1.23;0.80;;;13.40;99.90;;;;;;5037539;28;20087;-93
2022/08/06 06:10:35;;;;;;;3.50;0.90;;;11.00;99.90;;;;;;5037705;28;20037;-94
2022/08/06 06:13:23;;;;;;;0.93;0.60;;;15.20;99.90;;;;;;5037606;28;20045;-92
2022/08/06 06:16:16;;;;;;;0.73;0.50;;;14.00;99.90;;;;;;5053890;28;20512;-94
2022/08/06 06:18:48;;;;;;;0.40;0.40;;;13.80;99.90;;;;;;5034649;28;20455;-93
2022/08/06 06:21:21;;;;;;;0.45;0.45;;;13.30;99.90;;;;;;5038512;28;20354;-93
2022/08/06 06:23:54;;;;;;;0.90;0.50;;;14.40;99.90;;;;;;5038225;28;20049;-91
2022/08/06 06:27:17;;;;;;;0.55;0.55;;;14.90;99.90;;;;;;5038866;28;20056;-94
2022/08/06 06:30:04;;;;;;;0.82;0.50;;;14.30;99.90;;;;;;5037247;28;20052;-93
2022/08/06 06:32:39;;;;;;;1.60;0.60;;;15.30;99.90;;;;;;5054511;28;20052;-92
2022/08/06 06:35:32;;;;;;;0.60;0.60;;;13.00;99.90;;;;;;5038691;28;20191;-93
2022/08/06 06:38:22;;;;;;;0.28;0.28;;;15.50;99.90;;;;;;5039742;28;20401;-93
2022/08/06 06:41:29;;;;;;;0.50;0.40;;;15.40;99.90;;;;;;5038575;28;20045;-93
2022/08/06 06:44:20;;;;;;;0.95;0.47;;;15.70;99.90;;;;;;5041345;28;20045;-93
2022/08/06 06:46:54;;;;;;;1.42;0.50;;;14.90;99.90;;;;;;5038144;28;20052;-93
2022/08/06 06:49:42;;;;;;;0.47;0.47;;;16.20;99.90;;;;;;5038061;28;20084;-91
2022/08/06 06:52:18;;;;;;;0.65;0.47;;;16.10;99.90;;;;;;5037769;28;20362;-95
2022/08/06 06:54:51;;;;;;;0.30;0.30;;;16.00;99.90;;;;;;5037389;28;20374;-95
2022/08/06 06:57:25;;;;;;;0.40;0.40;;;16.20;99.90;;;;;;5037618;28;20049;-92
2022/08/06 06:59:55;;;;;;;0.30;0.30;;;14.40;99.90;;;;;;5037869;28;20041;-92
2022/08/06 07:02:28;;;;;;;0.30;0.30;;;15.90;99.90;;;;;;5054411;28;20492;-91
2022/08/06 07:04:55;;;;;;;1.63;0.63;;;17.30;99.90;;;;;;5054151;28;20037;-93
2022/08/06 07:07:24;;;;;;;0.60;0.35;;;17.00;99.90;;;;;;5037261;28;20106;-92
2022/08/06 07:09:53;;;;;;;0.30;0.30;;;17.00;99.90;;;;;;5031831;28;20493;-91
2022/08/06 07:12:23;;;;;;;1.05;0.40;;;16.40;99.90;;;;;;5038416;28;20075;-91
2022/08/06 07:14:52;;;;;;;0.30;0.30;;;17.60;99.90;;;;;;5037522;28;20485;-93
2022/08/06 07:17:20;;;;;;;0.30;0.30;;;17.60;99.90;;;;;;5039979;28;20059;-92
2022/08/06 07:19:48;;;;;;;0.35;0.35;;;17.50;99.90;;;;;;5039012;28;20138;-94
2022/08/06 07:22:15;;;;;;;0.20;0.20;;;17.50;99.90;;;;;;5038132;28;20507;-94
2022/08/06 07:24:42;;;;;;;0.85;0.40;;;17.80;99.90;;;;;;5038688;28;20139;-94
2022/08/06 07:27:09;;;;;;;1.25;0.50;;;16.30;99.90;;;;;;5038610;28;20072;-91
2022/08/06 07:29:37;;;;;;;2.30;0.45;;;17.80;99.90;;;;;;5037707;28;20512;-93
2022/08/06 07:32:07;;;;;;;1.08;0.40;;;18.10;99.90;;;;;;5052298;28;20056;-95
2022/08/06 07:34:36;;;;;;;0.38;0.38;;;15.80;99.90;;;;;;5035625;28;20045;-92
2022/08/06 07:37:06;;;;;;;1.30;0.43;;;17.90;99.90;;;;;;5036124;28;20401;-90
2022/08/06 07:39:39;;;;;;;0.70;0.30;;;18.00;99.90;;;;;;5036806;28;20451;-93
2022/08/06 07:42:12;;;;;;;0.40;0.30;;;18.70;99.90;;;;;;5052972;28;20078;-91
2022/08/06 07:44:43;;;;;;;1.70;0.35;;;18.30;99.90;;;;;;5037207;28;20053;-93
2022/08/06 07:47:16;;;;;;;0.30;0.30;;;18.80;99.90;;;;;;5039142;28;20074;-93
2022/08/06 07:49:52;;;;;;;0.20;0.20;;;18.60;99.90;;;;;;5038258;28;20037;-92
2022/08/06 07:52:19;;;;;;;0.20;0.20;;;16.60;99.90;;;;;;5038910;28;20102;-92
2022/08/06 07:54:46;;;;;;;0.93;0.45;;;18.40;99.90;;;;;;5037002;28;20045;-92
2022/08/06 07:57:13;;;;;;;0.20;0.20;;;18.80;99.90;;;;;;5037101;28;20044;-94
2022/08/06 07:59:40;;;;;;;0.22;0.20;;;18.60;99.90;;;;;;5036446;28;20163;-92
2022/08/06 08:02:11;;;;;;;0.30;0.30;;;18.70;99.90;;;;;;5036335;28;20151;-94
2022/08/06 08:07:25;;;;;;;0.35;0.30;;;18.40;99.90;;;;;;5056721;28;20358;-93
2022/08/06 08:09:52;;;;;;;0.35;0.35;;;18.40;99.90;;;;;;5039979;28;20094;-95
2022/08/06 08:12:19;;;;;;;0.30;0.30;;;19.30;99.90;;;;;;5039653;28;20052;-91
2022/08/06 08:14:48;;;;;;;0.20;0.15;;;18.50;99.90;;;;;;5040316;28;20149;-91
2022/08/06 08:17:15;;;;;;;0.40;0.40;;;17.40;99.90;;;;;;5039691;28;20045;-93
2022/08/06 08:19:41;;;;;;;0.40;0.40;;;19.30;99.90;;;;;;5047260;28;20357;-91
2022/08/06 08:22:13;;;;;;;0.55;0.30;;;17.50;99.90;;;;;;5054738;28;20041;-91
2022/08/06 08:24:39;;;;;;;0.47;0.30;;;19.30;99.90;;;;;;5040693;28;20477;-93
2022/08/06 08:27:10;;;;;;;1.45;0.40;;;19.10;99.90;;;;;;5057683;28;20098;-92
2022/08/06 08:29:37;;;;;;;;;;;19.50;99.90;;;;;;5040111;28;20404;-95
2022/08/06 08:32:04;;;;;;;0.80;0.38;;;19.60;99.90;;;;;;5056569;28;19928;-94
2022/08/06 08:34:31;;;;;;;0.93;0.40;;;17.20;99.90;;;;;;5039511;28;20041;-94
2022/08/06 08:36:57;;;;;;;0.57;0.40;;;19.40;99.90;;;;;;5040200;28;20125;-95
2022/08/06 08:39:23;;;;;;;0.40;0.40;;;19.30;99.90;;;;;;5039865;28;20049;-95
2022/08/06 08:42:09;;;;;;;0.30;0.30;;;19.80;99.90;;;;;;5039744;28;20049;-95
2022/08/06 08:45:03;;;;;;;0.40;0.30;;;20.00;99.90;;;;;;5042174;28;20056;-95
2022/08/06 08:47:30;;;;;;;0.30;0.30;;;19.60;99.90;;;;;;5039381;28;20061;-95
2022/08/06 08:50:00;;;;;;;0.30;0.30;;;19.90;99.90;;;;;;5040188;28;20056;-92
2022/08/06 08:52:31;;;;;;;0.30;0.30;;;18.10;99.90;;;;;;5040717;28;20080;-96
2022/08/06 08:55:01;;;;;;;0.30;0.30;;;20.20;99.90;;;;;;5039618;28;20045;-96
2022/08/06 08:57:28;;;;;;;1.15;0.45;;;20.30;99.90;;;;;;5039494;28;20076;-94
2022/08/06 08:59:57;;;;;;;0.63;0.47;;;19.80;99.90;;;;;;5038874;28;20566;-94
2022/08/06 09:02:44;;;;;;;0.60;0.47;;;17.50;99.90;;;;;;5045172;28;20060;-92
2022/08/06 09:05:12;;;;;;;0.52;0.40;;;19.40;99.90;;;;;;5038883;28;20041;-96
2022/08/06 09:07:41;;;;;;;0.47;0.40;;;19.40;99.90;;;;;;5038753;28;20133;-93
2022/08/06 09:10:08;;;;;;;0.30;0.30;;;19.10;99.90;;;;;;5039436;28;20056;-92
2022/08/06 09:12:34;;;;;;;0.50;0.40;;;19.00;99.90;;;;;;5022131;28;20401;-95
2022/08/06 09:15:01;;;;;;;0.88;0.40;;;17.40;99.90;;;;;;5038234;28;20064;-89
2022/08/06 09:17:29;;;;;;;0.40;0.40;;;19.20;99.90;;;;;;5038023;28;20041;-89
2022/08/06 09:19:58;;;;;;;0.82;0.47;;;18.50;99.90;;;;;;5039834;28;20088;-90
2022/08/06 09:22:33;;;;;;;1.23;0.55;;;18.90;99.90;;;;;;5038298;28;20393;-91
2022/08/06 09:25:00;;;;;;;3.55;0.43;;;18.60;99.90;;;;;;5038936;28;20064;-91
2022/08/06 09:27:34;;;;;;;1.20;0.50;;;18.40;99.90;;;;;;5037720;28;20080;-92
2022/08/06 09:30:02;;;;;;;1.23;0.40;;;18.70;99.90;;;;;;5037967;28;20040;-94
2022/08/06 09:32:42;;;;;;;1.05;0.45;;;18.50;99.90;;;;;;5038577;28;20408;-94
2022/08/06 09:35:29;;;;;;;0.50;0.40;;;17.90;99.90;;;;;;5037681;28;20135;-95
2022/08/06 09:38:04;;;;;;;0.90;0.52;;;19.10;99.90;;;;;;5038420;28;20052;-93
2022/08/06 09:40:31;;;;;;;0.75;0.52;;;19.70;99.90;;;;;;5037961;28;20088;-89
2022/08/06 09:43:29;;;;;;;1.48;0.73;;;19.90;99.90;;;;;;5038130;28;20081;-94
2022/08/06 09:45:55;;;;;;;0.93;0.70;;;21.30;99.90;;;;;;5053755;28;20520;-92
2022/08/06 09:48:23;;;;;;;0.98;0.70;;;20.50;99.90;;;;;;5037588;28;20053;-94
2022/08/06 09:50:49;;;;;;;1.30;0.80;;;21.10;99.90;;;;;;5038393;28;20068;-94
2022/08/06 09:53:18;;;;;;;0.80;0.60;;;21.00;99.90;;;;;;5037959;28;20083;-95
2022/08/06 09:55:44;;;;;;;1.38;0.70;;;20.70;99.90;;;;;;5037818;28;20141;-93
2022/08/06 09:58:10;;;;;;;1.08;0.60;;;20.60;99.90;;;;;;5037077;28;20045;-90
2022/08/06 10:00:41;;;;;;;1.75;0.68;;;17.00;99.90;;;;;;5054457;28;20056;-90
2022/08/06 10:03:09;;;;;;;0.43;0.40;;;22.50;99.90;;;;;;5053855;28;20080;-91
2022/08/06 10:05:35;;;;;;;0.52;0.40;;;19.50;99.90;;;;;;5038111;28;20111;-93
2022/08/06 10:08:08;;;;;;;0.68;0.47;;;19.70;99.90;;;;;;5037671;28;20060;-92
2022/08/06 10:10:48;;;;;;;0.30;0.30;;;19.30;99.90;;;;;;5037330;28;20045;-93
2022/08/06 10:13:26;;;;;;;0.60;0.60;;;18.20;99.90;;;;;;5037456;28;20053;-92
2022/08/06 10:15:57;;;;;;;2.28;0.63;;;19.40;99.90;;;;;;5037784;28;20110;-93
2022/08/06 10:18:41;;;;;;;0.80;0.43;;;19.30;99.90;;;;;;5054173;28;20052;-91
2022/08/06 10:21:15;;;;;;;0.40;0.40;;;19.40;99.90;;;;;;5037698;28;20143;-94
2022/08/06 10:23:43;;;;;;;1.05;0.60;;;19.30;99.90;;;;;;5037087;28;20057;-92
2022/08/06 10:26:11;;;;;;;0.60;0.52;;;19.50;99.90;;;;;;5037366;28;20056;-93
2022/08/06 10:28:44;;;;;;;0.95;0.60;;;19.70;99.90;;;;;;5037415;28;20132;-94
2022/08/06 10:31:13;;;;;;;1.05;0.70;;;20.10;99.90;;;;;;5054305;28;20105;-91
2022/08/06 10:33:49;;;;;;;0.95;0.75;;;20.30;99.90;;;;;;5037210;28;20515;-91
2022/08/06 10:36:18;;;;;;;1.15;0.60;;;19.90;99.90;;;;;;5053418;28;20053;-93
2022/08/06 10:38:52;;;;;;;0.60;0.40;;;20.80;99.90;;;;;;5037314;28;20049;-93
2022/08/06 10:41:19;;;;;;;0.40;0.40;;;20.00;99.90;;;;;;5037229;28;20072;-91
2022/08/06 10:43:48;;;;;;;2.67;0.63;;;20.40;99.90;;;;;;5054058;28;20125;-96
2022/08/06 10:46:17;;;;;;;1.60;0.70;;;18.50;99.90;;;;;;5037123;28;20507;-91
2022/08/06 10:48:45;;;;;;;0.88;0.60;;;19.70;99.90;;;;;;5037335;28;20049;-90
2022/08/06 10:51:12;;;;;;;0.40;0.40;;;19.80;99.90;;;;;;5053803;28;20052;-93
2022/08/06 10:53:41;;;;;;;1.40;0.60;;;19.60;99.90;;;;;;5038231;28;20140;-93
2022/08/06 10:56:08;;;;;;;1.80;0.77;;;20.30;99.90;;;;;;5038078;28;20039;-94
2022/08/06 10:58:35;;;;;;;0.70;0.60;;;19.80;99.90;;;;;;5038489;28;20095;-93
2022/08/06 11:01:24;;;;;;;2.83;0.90;;;19.80;99.90;;;;;;5036090;28;20041;-93
2022/08/06 11:04:02;;;;;;;1.33;0.70;;;17.70;99.90;;;;;;5037290;28;20051;-93
2022/08/06 11:06:52;;;;;;;0.73;0.60;;;20.00;99.90;;;;;;5043064;28;20041;-94
2022/08/06 11:09:49;;;;;;;2.25;0.50;;;20.40;99.90;;;;;;5046346;28;20099;-91
2022/08/06 11:12:46;;;;;;;0.95;0.73;;;20.70;99.90;;;;;;5038429;28;20056;-95
2022/08/06 11:15:15;;;;;;;1.52;0.80;;;21.10;99.90;;;;;;5036535;28;20041;-92
2022/08/06 11:17:47;;;;;;;2.03;0.80;;;20.60;99.90;;;;;;5020902;28;20049;-92
2022/08/06 11:20:36;;;;;;;2.28;0.90;;;20.50;99.90;;;;;;5036321;28;20074;-94
2022/08/06 11:23:07;;;;;;;1.50;0.68;;;20.60;99.90;;;;;;5037036;28;20052;-95
2022/08/06 11:25:46;;;;;;;0.80;0.55;;;20.40;99.90;;;;;;5036971;28;20041;-92
2022/08/06 11:28:19;;;;;;;1.13;0.60;;;20.70;99.90;;;;;;5037037;28;20362;-94
2022/08/06 11:30:54;;;;;;;1.50;0.82;;;20.50;99.90;;;;;;5036050;28;20057;-89
2022/08/06 11:33:41;;;;;;;1.92;0.60;;;20.70;99.90;;;;;;5036376;28;20124;-95
2022/08/06 11:36:09;;;;;;;0.70;0.50;;;20.60;99.90;;;;;;5036307;28;20056;-95
2022/08/06 11:38:47;;;;;;;0.82;0.55;;;21.10;99.90;;;;;;5036624;28;20045;-91
2022/08/06 11:41:24;;;;;;;0.77;0.57;;;21.50;99.90;;;;;;5039662;28;20496;-96
2022/08/06 11:43:52;;;;;;;0.70;0.60;;;20.40;99.90;;;;;;5040522;28;20048;-96
2022/08/06 11:46:30;;;;;;;0.90;0.70;;;21.20;99.90;;;;;;5039740;28;20135;-93
2022/08/06 11:48:59;;;;;;;2.97;0.90;;;20.60;99.90;;;;;;5040131;28;20045;-90
2022/08/06 11:51:59;;;;;;;5.80;1.15;;;20.50;99.90;;;;;;5040025;28;20072;-92
2022/08/06 11:54:36;;;;;;;2.03;0.75;;;22.60;99.90;;;;;;5039897;28;20056;-93
2022/08/06 11:57:04;;;;;;;1.85;1.05;;;20.60;99.90;;;;;;5039506;28;20061;-95
2022/08/06 11:59:44;;;;;;;2.80;1.10;;;20.80;99.90;;;;;;5039795;28;20107;-94
2022/08/06 12:02:12;;;;;;;0.90;0.65;;;20.90;99.90;;;;;;5039440;28;20041;-91
2022/08/06 12:04:43;;;;;;;2.17;0.75;;;19.60;99.90;;;;;;5040288;28;20093;-92
2022/08/06 12:07:22;;;;;;;1.23;0.68;;;21.50;99.90;;;;;;5042553;28;20052;-91
2022/08/06 12:10:06;;;;;;;1.00;0.80;;;21.70;99.90;;;;;;5044153;28;20106;-96
2022/08/06 12:12:35;;;;;;;1.80;0.80;;;21.00;99.90;;;;;;5040345;28;20461;-94
2022/08/06 12:15:24;;;;;;;1.63;0.80;;;21.10;99.90;;;;;;5040635;28;20046;-90
2022/08/06 12:17:59;;;;;;;0.85;0.60;;;21.30;99.90;;;;;;5058009;28;20132;-93
2022/08/06 12:20:37;;;;;;;1.23;0.80;;;21.70;99.90;;;;;;5042790;28;20103;-87
2022/08/06 12:23:11;;;;;;;0.50;0.50;;;21.60;99.90;;;;;;5039779;28;20049;-91
2022/08/06 12:25:40;;;;;;;1.02;0.70;;;21.30;99.90;;;;;;5040405;28;20049;-90
2022/08/06 12:28:10;;;;;;;1.33;0.93;;;21.30;99.40;;;;;;5039729;28;20388;-93
2022/08/06 12:30:48;;;;;;;1.80;0.95;;;22.00;99.90;;;;;;5039315;28;20056;-94
2022/08/06 12:33:18;;;;;;;2.10;1.00;;;21.20;99.60;;;;;;5039567;28;20132;-90
2022/08/06 12:35:59;;;;;;;1.23;0.80;;;21.50;99.90;;;;;;5039261;28;20041;-94
2022/08/06 12:38:29;;;;;;;2.08;0.90;;;18.50;99.00;;;;;;5038973;28;20503;-91
2022/08/06 12:41:04;;;;;;;1.42;0.80;;;21.70;99.90;;;;;;5055950;28;20399;-92
2022/08/06 12:43:31;;;;;;;1.77;0.93;;;21.40;99.50;;;;;;5038680;28;20036;-91
2022/08/06 12:46:06;;;;;;;2.08;1.15;;;21.50;99.90;;;;;;5039140;28;20127;-92
2022/08/06 12:48:34;;;;;;;2.08;1.25;;;20.70;99.90;;;;;;5039068;28;20049;-93
2022/08/06 12:51:13;;;;;;;1.27;0.90;;;20.80;99.70;;;;;;5038802;28;20045;-96
2022/08/06 12:53:41;;;;;;;1.65;0.98;;;19.80;99.20;;;;;;5038881;28;20060;-92
2022/08/06 12:56:11;;;;;;;1.70;0.88;;;21.10;99.50;;;;;;5038978;28;20045;-94
2022/08/06 12:58:40;;;;;;;4.30;1.00;;;21.00;99.90;;;;;;5039457;28;20052;-95
2022/08/06 13:01:34;;;;;;;1.20;0.97;;;21.00;98.50;;;;;;5039349;28;20037;-94
2022/08/06 13:04:09;;;;;;;1.83;1.00;;;21.30;99.50;;;;;;5037736;28;20291;-93
2022/08/06 13:06:38;;;;;;;2.55;1.10;;;21.20;99.80;;;;;;5038081;28;20053;-92
2022/08/06 13:09:06;;;;;;;1.35;0.90;;;21.20;99.90;;;;;;5038212;28;20049;-92
2022/08/06 13:11:33;;;;;;;1.63;0.95;;;21.30;99.60;;;;;;5037628;28;20102;-90
2022/08/06 13:14:07;;;;;;;1.48;0.88;;;21.60;99.20;;;;;;5039691;28;20041;-94
2022/08/06 13:16:44;;;;;;;1.92;1.33;;;21.60;98.20;;;;;;5038809;28;20083;-93
2022/08/06 13:19:25;;;;;;;;;;;;;;;;;;;;;